createdAt,value
2022-08-07T00:00:18.703Z,62.44
2022-08-07T00:02:47.511Z,63.04
2022-08-07T00:05:15.330Z,61.65
2022-08-07T00:07:43.092Z,60.97
2022-08-07T00:10:29.723Z,60.75
2022-08-07T00:13:02.222Z,60.64
2022-08-07T00:15:38.423Z,60.55
2022-08-07T00:18:20.267Z,60.51
2022-08-07T00:20:54.657Z,60.66
2022-08-07T00:23:22.264Z,61.26
2022-08-07T00:25:52.440Z,61.15
2022-08-07T00:28:31.669Z,60.78
2022-08-07T00:31:12.344Z,61.12
2022-08-07T00:33:41.279Z,61.03
2022-08-07T00:36:09.302Z,61.18
2022-08-07T00:38:39.117Z,60.62
2022-08-07T00:41:09.882Z,61.01
2022-08-07T00:44:01.181Z,60.65
2022-08-07T00:46:33.956Z,60.71
2022-08-07T00:49:03.124Z,61.16
2022-08-07T00:51:57.677Z,60.97
2022-08-07T00:54:19.782Z,61.02
2022-08-07T00:56:49.899Z,61.43
2022-08-07T00:59:20.312Z,61.48
2022-08-07T01:02:02.759Z,61.83
2022-08-07T01:04:32.567Z,61.69
2022-08-07T01:07:01.666Z,61.76
2022-08-07T01:10:04.755Z,62.31
2022-08-07T01:12:28.557Z,62.08
2022-08-07T01:15:01.747Z,62.03
2022-08-07T01:17:32.573Z,62.12
2022-08-07T01:20:05.648Z,62.37
2022-08-07T01:22:34.998Z,62.66
2022-08-07T01:25:13.936Z,62.56
2022-08-07T01:27:52.665Z,62.22
2022-08-07T01:30:27.139Z,62.67
2022-08-07T01:32:55.343Z,62.83
2022-08-07T01:35:24.366Z,63.93
2022-08-07T01:37:52.731Z,63.15
2022-08-07T01:40:23.198Z,63.70
2022-08-07T01:42:58.953Z,63.74
2022-08-07T01:45:36.923Z,64.07
2022-08-07T01:48:19.073Z,64.06
2022-08-07T01:50:55.824Z,64.66
2022-08-07T01:54:09.493Z,64.58
2022-08-07T01:56:24.430Z,64.84
2022-08-07T01:59:08.034Z,64.69
2022-08-07T02:02:02.728Z,65.07
2022-08-07T02:04:57.468Z,65.52
2022-08-07T02:07:36.096Z,65.64
2022-08-07T02:10:22.887Z,65.66
2022-08-07T02:12:51.716Z,65.93
2022-08-07T02:15:23.432Z,66.30
2022-08-07T02:17:55.372Z,66.19
2022-08-07T02:20:25.309Z,66.45
2022-08-07T02:22:55.387Z,66.67
2022-08-07T02:26:10.290Z,66.68
2022-08-07T02:28:15.470Z,66.46
2022-08-07T02:30:55.080Z,66.71
2022-08-07T02:33:27.832Z,67.27
2022-08-07T02:36:26.863Z,67.37
2022-08-07T02:38:59.375Z,67.25
2022-08-07T02:41:37.041Z,66.97
2022-08-07T02:44:05.562Z,67.43
2022-08-07T02:46:36.741Z,67.35
2022-08-07T02:49:05.832Z,67.59
2022-08-07T02:51:42.334Z,67.80
2022-08-07T02:54:20.298Z,67.91
2022-08-07T02:56:48.721Z,68.05
2022-08-07T02:59:24.062Z,67.92
2022-08-07T03:01:56.318Z,67.65
2022-08-07T03:04:27.036Z,67.62
2022-08-07T03:06:55.267Z,67.98
2022-08-07T03:09:44.737Z,67.99
2022-08-07T03:12:21.909Z,68.21
2022-08-07T03:14:52.651Z,67.90
2022-08-07T03:17:22.263Z,68.12
2022-08-07T03:19:54.608Z,68.02
2022-08-07T03:22:30.407Z,67.90
2022-08-07T03:25:00.087Z,67.97
2022-08-07T03:27:30.457Z,67.85
2022-08-07T03:29:59.967Z,68.02
2022-08-07T03:32:33.522Z,68.15
2022-08-07T03:35:17.711Z,68.43
2022-08-07T03:37:55.230Z,68.60
2022-08-07T03:40:27.467Z,68.67
2022-08-07T03:42:59.946Z,68.22
2022-08-07T03:45:31.067Z,68.08
2022-08-07T03:48:00.629Z,68.41
2022-08-07T03:50:29.343Z,68.57
2022-08-07T03:52:59.286Z,68.39
2022-08-07T03:55:52.979Z,68.11
2022-08-07T03:58:33.315Z,67.94
2022-08-07T04:01:11.137Z,68.02
2022-08-07T04:03:53.675Z,68.29
2022-08-07T04:06:37.459Z,68.01
2022-08-07T04:09:14.984Z,67.99
2022-08-07T04:12:27.575Z,67.68
2022-08-07T04:14:38.646Z,67.56
2022-08-07T04:17:19.770Z,67.75
2022-08-07T04:19:54.528Z,67.54
2022-08-07T04:22:28.835Z,67.32
2022-08-07T04:25:01.027Z,67.50
2022-08-07T04:27:35.718Z,67.34
2022-08-07T04:30:11.836Z,67.22
2022-08-07T04:32:58.210Z,67.24
2022-08-07T04:35:26.882Z,67.03
2022-08-07T04:38:04.577Z,67.20
2022-08-07T04:40:36.147Z,67.44
2022-08-07T04:43:22.094Z,66.96
2022-08-07T04:46:51.345Z,67.29
2022-08-07T04:49:37.578Z,66.98
2022-08-07T04:52:21.282Z,67.09
2022-08-07T04:55:00.158Z,66.83
2022-08-07T04:58:09.899Z,66.56
2022-08-07T05:00:47.869Z,66.35
2022-08-07T05:03:17.134Z,65.75
2022-08-07T05:06:19.834Z,65.79
2022-08-07T05:09:02.315Z,65.35
2022-08-07T05:11:57.766Z,65.34
2022-08-07T05:14:54.053Z,65.71
2022-08-07T05:17:52.698Z,66.56
2022-08-07T05:20:17.037Z,65.47
2022-08-07T05:22:47.599Z,65.65
2022-08-07T05:25:25.834Z,66.17
2022-08-07T05:28:20.639Z,65.19
2022-08-07T05:30:49.647Z,65.26
2022-08-07T05:33:21.330Z,64.66
2022-08-07T05:35:51.616Z,63.89
2022-08-07T05:39:01.457Z,63.05
2022-08-07T05:41:14.026Z,62.10
2022-08-07T05:44:07.520Z,62.15
2022-08-07T05:46:37.712Z,61.61
2022-08-07T05:49:12.172Z,60.74
2022-08-07T05:51:46.259Z,60.70
2022-08-07T05:54:30.809Z,59.87
2022-08-07T05:57:06.710Z,59.14
2022-08-07T05:59:56.088Z,59.09
2022-08-07T06:02:30.529Z,58.20
2022-08-07T06:05:03.988Z,57.82
2022-08-07T06:08:14.429Z,58.10
2022-08-07T06:10:22.559Z,57.06
2022-08-07T06:12:50.296Z,57.13
2022-08-07T06:15:20.040Z,57.04
2022-08-07T06:17:53.325Z,56.69
2022-08-07T06:20:32.185Z,56.48
2022-08-07T06:23:24.923Z,58.12
2022-08-07T06:26:00.812Z,55.71
2022-08-07T06:28:29.722Z,56.88
2022-08-07T06:30:58.013Z,56.72
2022-08-07T06:33:26.702Z,57.42
2022-08-07T06:36:12.455Z,54.90
2022-08-07T06:38:59.393Z,55.58
2022-08-07T06:42:00.474Z,56.56
2022-08-07T06:44:31.126Z,54.40
2022-08-07T06:47:12.285Z,50.76
2022-08-07T06:49:51.752Z,50.07
2022-08-07T06:52:35.700Z,47.37
2022-08-07T06:55:33.949Z,43.85
2022-08-07T06:58:04.758Z,41.57
2022-08-07T07:00:36.792Z,39.88
2022-08-07T07:03:08.662Z,39.78
2022-08-07T07:06:05.063Z,40.67
2022-08-07T07:08:33.398Z,42.01
2022-08-07T07:11:14.114Z,42.49
2022-08-07T07:14:01.289Z,41.27
2022-08-07T07:16:45.330Z,39.03
2022-08-07T07:19:57.605Z,34.92
2022-08-07T07:22:36.031Z,32.70
2022-08-07T07:26:30.416Z,32.20
2022-08-07T07:28:29.501Z,30.84
2022-08-07T07:31:04.015Z,30.10
2022-08-07T07:33:35.171Z,29.94
2022-08-07T07:36:04.758Z,30.67
2022-08-07T07:38:35.012Z,30.01
2022-08-07T07:41:08.643Z,29.29
2022-08-07T07:44:13.748Z,32.21
2022-08-07T07:46:36.990Z,30.15
2022-08-07T07:50:35.901Z,30.59
2022-08-07T07:52:15.874Z,29.61
2022-08-07T07:54:51.443Z,29.11
2022-08-07T07:57:52.059Z,29.54
2022-08-07T08:00:20.747Z,29.90
2022-08-07T08:03:16.603Z,29.88
2022-08-07T08:05:57.883Z,30.14
2022-08-07T08:08:34.259Z,30.96
2022-08-07T08:11:16.246Z,30.43
2022-08-07T08:13:53.970Z,29.55
2022-08-07T08:16:40.498Z,29.72
2022-08-07T08:19:17.907Z,31.86
2022-08-07T08:22:17.866Z,32.79
2022-08-07T08:25:18.776Z,34.80
2022-08-07T08:28:01.929Z,36.35
2022-08-07T08:30:34.452Z,35.41
2022-08-07T08:33:05.574Z,36.22
2022-08-07T08:35:49.659Z,37.78
2022-08-07T08:38:26.034Z,37.85
2022-08-07T08:41:57.328Z,38.33
2022-08-07T08:44:33.291Z,36.69
2022-08-07T08:47:55.485Z,37.17
2022-08-07T08:50:39.237Z,37.35
2022-08-07T08:53:39.367Z,37.35
2022-08-07T08:56:16.876Z,36.83
2022-08-07T08:59:17.975Z,36.06
2022-08-07T09:02:01.298Z,37.28
2022-08-07T09:05:08.215Z,36.00
2022-08-07T09:08:02.377Z,35.43
2022-08-07T09:10:48.858Z,38.89
2022-08-07T09:13:39.518Z,38.67
2022-08-07T09:16:30.662Z,40.14
2022-08-07T09:19:52.179Z,40.05
2022-08-07T09:24:33.193Z,39.71
2022-08-07T09:25:54.379Z,40.10
2022-08-07T09:30:06.430Z,40.50
2022-08-07T09:31:38.622Z,41.63
2022-08-07T09:34:22.509Z,41.49
2022-08-07T09:37:19.337Z,40.83
2022-08-07T09:39:59.469Z,40.75
2022-08-07T09:43:00.436Z,40.89
2022-08-07T09:47:23.827Z,41.39
2022-08-07T09:50:01.877Z,40.84
2022-08-07T09:52:15.822Z,41.72
2022-08-07T09:54:46.597Z,42.87
2022-08-07T09:57:36.575Z,45.28
2022-08-07T10:00:14.536Z,42.63
2022-08-07T10:02:55.903Z,41.32
2022-08-07T10:06:00.120Z,43.65
2022-08-07T10:08:42.043Z,44.82
2022-08-07T10:12:01.104Z,42.45
2022-08-07T10:14:22.969Z,43.66
2022-08-07T10:17:20.004Z,44.01
2022-08-07T10:20:12.920Z,42.82
2022-08-07T10:23:14.889Z,43.09
2022-08-07T10:26:11.888Z,41.00
2022-08-07T10:29:24.557Z,41.40
2022-08-07T10:32:36.773Z,42.69
2022-08-07T10:35:57.104Z,41.57
2022-08-07T10:38:42.120Z,42.87
2022-08-07T10:41:51.696Z,41.56
2022-08-07T10:44:38.370Z,41.31
2022-08-07T10:47:51.578Z,41.36
2022-08-07T10:50:33.345Z,39.16
2022-08-07T10:53:11.306Z,39.15
2022-08-07T10:56:02.347Z,37.61
2022-08-07T10:58:46.064Z,38.71
2022-08-07T11:01:15.253Z,41.27
2022-08-07T11:03:55.067Z,41.45
2022-08-07T11:06:44.541Z,40.06
2022-08-07T11:10:08.575Z,38.00
2022-08-07T11:12:43.310Z,38.40
2022-08-07T11:15:21.035Z,38.88
2022-08-07T11:18:06.941Z,37.47
2022-08-07T11:20:46.626Z,37.02
2022-08-07T11:23:30.874Z,38.01
2022-08-07T11:26:28.346Z,38.28
2022-08-07T11:29:41.170Z,39.61
2022-08-07T11:32:29.347Z,39.04
2022-08-07T11:35:02.704Z,40.07
2022-08-07T11:38:10.288Z,39.54
2022-08-07T11:40:39.630Z,39.65
2022-08-07T11:43:41.518Z,39.30
2022-08-07T11:46:28.876Z,39.87
2022-08-07T11:49:50.751Z,42.53
2022-08-07T11:52:11.194Z,42.06
2022-08-07T11:55:13.108Z,40.34
2022-08-07T11:58:21.226Z,41.05
2022-08-07T12:01:05.301Z,41.49
2022-08-07T12:04:31.635Z,40.53
2022-08-07T12:07:20.237Z,40.58
2022-08-07T12:10:17.907Z,40.99
2022-08-07T12:13:03.504Z,41.69
2022-08-07T12:16:06.205Z,42.62
2022-08-07T12:18:56.315Z,43.38
2022-08-07T12:22:38.983Z,43.09
2022-08-07T12:25:17.843Z,42.78
2022-08-07T12:28:09.458Z,42.90
2022-08-07T12:30:46.737Z,43.59
2022-08-07T12:33:23.257Z,43.65
2022-08-07T12:35:57.678Z,43.82
2022-08-07T12:38:38.470Z,44.12
2022-08-07T12:41:12.871Z,44.80
2022-08-07T12:44:01.936Z,42.15
2022-08-07T12:46:50.773Z,39.94
2022-08-07T12:49:39.864Z,40.46
2022-08-07T12:52:55.922Z,40.80
2022-08-07T12:55:41.336Z,40.94
2022-08-07T12:58:35.229Z,39.17
2022-08-07T13:01:07.744Z,39.17
2022-08-07T13:04:19.037Z,39.57
2022-08-07T13:08:12.865Z,40.19
2022-08-07T13:10:39.833Z,38.80
2022-08-07T13:13:50.491Z,37.50
2022-08-07T13:16:18.018Z,39.96
2022-08-07T13:19:21.752Z,40.31
2022-08-07T13:22:31.388Z,41.12
2022-08-07T13:25:28.771Z,42.18
2022-08-07T13:28:18.321Z,42.17
2022-08-07T13:31:06.369Z,42.63
2022-08-07T13:34:34.688Z,41.31
2022-08-07T13:37:19.615Z,42.14
2022-08-07T13:40:35.062Z,42.41
2022-08-07T13:42:57.424Z,42.33
2022-08-07T13:46:11.495Z,44.53
2022-08-07T13:48:27.585Z,45.14
2022-08-07T13:51:20.477Z,45.19
2022-08-07T13:54:00.657Z,45.33
2022-08-07T13:56:35.720Z,44.48
2022-08-07T13:59:20.573Z,43.82
2022-08-07T14:02:04.587Z,43.25
2022-08-07T14:04:48.935Z,42.66
2022-08-07T14:07:28.863Z,42.23
2022-08-07T14:10:17.377Z,42.31
2022-08-07T14:13:07.664Z,42.92
2022-08-07T14:15:51.772Z,43.63
2022-08-07T14:18:30.427Z,44.44
2022-08-07T14:22:02.874Z,45.45
2022-08-07T14:24:28.175Z,45.15
2022-08-07T14:28:01.690Z,45.11
2022-08-07T14:30:06.503Z,44.81
2022-08-07T14:32:50.954Z,45.30
2022-08-07T14:35:42.965Z,45.30
2022-08-07T14:38:26.121Z,45.76
2022-08-07T14:41:02.147Z,46.14
2022-08-07T14:44:15.799Z,46.26
2022-08-07T14:47:27.501Z,46.73
2022-08-07T14:50:45.855Z,47.81
2022-08-07T14:56:02.426Z,47.50
2022-08-07T15:34:05.597Z,51.10
2022-08-07T15:37:03.978Z,51.23
2022-08-07T15:39:57.183Z,50.85
2022-08-07T15:42:47.988Z,50.90
2022-08-07T15:45:57.367Z,50.98
2022-08-07T15:52:06.568Z,52.24
2022-08-07T15:54:54.109Z,52.06
2022-08-07T15:57:48.565Z,51.89
2022-08-07T16:00:31.579Z,50.42
2022-08-07T16:03:21.331Z,50.46
2022-08-07T16:05:59.040Z,50.35
2022-08-07T16:08:37.753Z,50.39
2022-08-07T16:11:26.891Z,50.42
2022-08-07T16:14:05.431Z,51.57
2022-08-07T16:16:57.022Z,51.36
2022-08-07T16:20:04.714Z,51.27
2022-08-07T16:22:55.804Z,51.02
2022-08-07T16:25:55.394Z,51.69
2022-08-07T16:29:18.863Z,51.48
2022-08-07T16:31:57.690Z,51.92
2022-08-07T16:34:48.156Z,51.13
2022-08-07T16:38:04.470Z,50.54
2022-08-07T16:40:57.188Z,49.18
2022-08-07T16:44:03.728Z,49.61
2022-08-07T16:50:20.855Z,50.43
2022-08-07T16:52:55.708Z,50.36
2022-08-07T16:55:47.941Z,49.34
2022-08-07T16:59:14.440Z,49.45
2022-08-07T17:02:03.233Z,49.68
2022-08-07T17:04:50.932Z,49.65
2022-08-07T17:07:55.311Z,49.18
2022-08-07T17:10:54.211Z,49.67
2022-08-07T17:14:18.493Z,50.37
2022-08-07T17:17:01.180Z,50.53
2022-08-07T17:20:02.619Z,50.40
2022-08-07T17:22:45.863Z,50.64
2022-08-07T17:25:20.149Z,51.55
2022-08-07T17:28:19.816Z,52.43
2022-08-07T17:31:00.992Z,52.52
2022-08-07T17:34:34.963Z,52.09
2022-08-07T17:38:06.511Z,51.90
2022-08-07T17:40:30.379Z,52.49
2022-08-07T17:43:17.840Z,52.64
2022-08-07T17:46:09.051Z,52.72
2022-08-07T17:48:58.662Z,52.90
2022-08-07T17:52:00.750Z,52.62
2022-08-07T17:54:39.943Z,52.58
2022-08-07T17:57:59.175Z,51.88
2022-08-07T18:00:33.122Z,52.59
2022-08-07T18:03:18.362Z,52.65
2022-08-07T18:06:03.223Z,52.69
2022-08-07T18:09:00.594Z,53.51
2022-08-07T18:12:08.021Z,54.02
2022-08-07T18:14:54.876Z,54.22
2022-08-07T18:18:46.612Z,54.59
2022-08-07T18:21:10.091Z,55.19
2022-08-07T18:23:57.486Z,54.95
2022-08-07T18:26:41.624Z,55.19
2022-08-07T18:30:07.773Z,55.54
2022-08-07T18:32:31.916Z,55.33
2022-08-07T18:35:09.045Z,55.54
2022-08-07T18:38:57.068Z,55.45
2022-08-07T18:41:46.032Z,56.20
2022-08-07T18:44:20.536Z,55.78
2022-08-07T18:47:00.454Z,56.11
2022-08-07T18:50:32.779Z,57.64
2022-08-07T18:52:56.634Z,58.92
2022-08-07T18:55:58.615Z,59.09
2022-08-07T18:58:54.276Z,60.24
2022-08-07T19:02:18.993Z,60.77
2022-08-07T19:05:15.537Z,61.58
2022-08-07T19:07:57.501Z,61.98
2022-08-07T19:10:55.502Z,61.54
2022-08-07T19:13:46.410Z,62.09
2022-08-07T19:17:00.588Z,62.73
2022-08-07T19:19:47.231Z,63.19
2022-08-07T19:22:34.146Z,63.01
2022-08-07T19:25:06.287Z,62.98
2022-08-07T19:28:58.135Z,62.80
2022-08-07T19:31:05.120Z,62.59
2022-08-07T19:33:34.859Z,62.33
2022-08-07T19:36:04.145Z,62.34
2022-08-07T19:38:34.188Z,62.67
2022-08-07T19:41:03.410Z,63.10
2022-08-07T19:43:45.192Z,63.16
2022-08-07T19:46:26.702Z,63.69
2022-08-07T19:49:05.465Z,63.51
2022-08-07T19:51:53.126Z,63.69
2022-08-07T19:54:31.865Z,63.54
2022-08-07T19:58:02.865Z,63.44
2022-08-07T20:00:21.862Z,63.57
2022-08-07T20:03:35.734Z,63.43
2022-08-07T20:06:06.287Z,63.46
2022-08-07T20:08:50.359Z,63.62
2022-08-07T20:11:23.058Z,63.81
2022-08-07T20:14:03.244Z,64.65
2022-08-07T20:16:36.944Z,64.52
2022-08-07T20:19:10.589Z,64.82
2022-08-07T20:21:48.078Z,64.67
2022-08-07T20:24:28.801Z,64.87
2022-08-07T20:27:02.925Z,65.14
2022-08-07T20:29:48.998Z,65.56
2022-08-07T20:32:40.446Z,65.90
2022-08-07T20:35:12.702Z,66.43
2022-08-07T20:37:58.409Z,66.37
2022-08-07T20:40:34.330Z,66.41
2022-08-07T20:43:14.934Z,66.34
2022-08-07T20:46:28.240Z,67.46
2022-08-07T20:49:54.582Z,67.27
2022-08-07T20:51:36.118Z,67.14
2022-08-07T20:54:12.369Z,67.90
